sensor_id;sensor_type;location;lat;lon;timestamp;pressure;altitude;pressure_sealevel;temperature;humidity
31121;BME280;17770;45.966;13.632;2023-09-07T00:00:42;101049.19;;;28.45;42.91
31121;BME280;17770;45.966;13.632;2023-09-07T00:03:08;101048.47;;;28.43;43.32
31121;BME280;17770;45.966;13.632;2023-09-07T00:05:34;101052.97;;;28.43;43.06
31121;BME280;17770;45.966;13.632;2023-09-07T00:08:00;101052.13;;;28.42;43.18
31121;BME280;17770;45.966;13.632;2023-09-07T00:10:26;101047.94;;;28.40;43.28
31121;BME280;17770;45.966;13.632;2023-09-07T00:12:52;101047.25;;;28.38;43.14
31121;BME280;17770;45.966;13.632;2023-09-07T00:15:18;101048.91;;;28.39;43.25
31121;BME280;17770;45.966;13.632;2023-09-07T00:17:45;101050.06;;;28.36;43.39
31121;BME280;17770;45.966;13.632;2023-09-07T00:20:11;101045.72;;;28.35;43.51
31121;BME280;17770;45.966;13.632;2023-09-07T00:22:39;101048.78;;;28.31;43.20
31121;BME280;17770;45.966;13.632;2023-09-07T00:25:05;101055.75;;;28.32;43.08
31121;BME280;17770;45.966;13.632;2023-09-07T00:27:35;101058.41;;;28.32;43.32
31121;BME280;17770;45.966;13.632;2023-09-07T00:30:02;101053.13;;;28.32;43.28
31121;BME280;17770;45.966;13.632;2023-09-07T00:32:30;101049.75;;;28.30;43.18
31121;BME280;17770;45.966;13.632;2023-09-07T00:34:55;101057.03;;;28.28;43.34
31121;BME280;17770;45.966;13.632;2023-09-07T00:37:21;101048.25;;;28.27;43.31
31121;BME280;17770;45.966;13.632;2023-09-07T00:39:47;101050.03;;;28.27;43.57
31121;BME280;17770;45.966;13.632;2023-09-07T00:42:13;101052.84;;;28.25;43.20
31121;BME280;17770;45.966;13.632;2023-09-07T00:44:39;101044.88;;;28.25;43.24
31121;BME280;17770;45.966;13.632;2023-09-07T00:47:05;101046.03;;;28.23;43.24
31121;BME280;17770;45.966;13.632;2023-09-07T00:49:31;101036.22;;;28.23;43.38
31121;BME280;17770;45.966;13.632;2023-09-07T00:51:57;101033.84;;;28.20;43.07
31121;BME280;17770;45.966;13.632;2023-09-07T00:54:23;101035.53;;;28.21;43.34
31121;BME280;17770;45.966;13.632;2023-09-07T00:56:49;101028.69;;;28.18;43.23
31121;BME280;17770;45.966;13.632;2023-09-07T00:59:15;101031.50;;;28.17;43.36
31121;BME280;17770;45.966;13.632;2023-09-07T01:01:41;101033.44;;;28.15;43.32
31121;BME280;17770;45.966;13.632;2023-09-07T01:04:09;101030.78;;;28.15;43.55
31121;BME280;17770;45.966;13.632;2023-09-07T01:07:18;101026.63;;;28.12;43.23
31121;BME280;17770;45.966;13.632;2023-09-07T01:09:26;101032.06;;;28.11;43.04
31121;BME280;17770;45.966;13.632;2023-09-07T01:11:54;101026.91;;;28.09;43.04
31121;BME280;17770;45.966;13.632;2023-09-07T01:14:20;101028.84;;;28.07;43.00
31121;BME280;17770;45.966;13.632;2023-09-07T01:16:46;101025.34;;;28.07;42.88
31121;BME280;17770;45.966;13.632;2023-09-07T01:19:12;101031.66;;;28.06;42.95
31121;BME280;17770;45.966;13.632;2023-09-07T01:21:38;101020.19;;;28.05;42.75
31121;BME280;17770;45.966;13.632;2023-09-07T01:24:08;101022.00;;;28.05;42.82
31121;BME280;17770;45.966;13.632;2023-09-07T01:26:34;101025.78;;;28.02;42.96
31121;BME280;17770;45.966;13.632;2023-09-07T01:29:01;101021.44;;;28.01;42.86
31121;BME280;17770;45.966;13.632;2023-09-07T01:31:27;101017.97;;;28.01;43.20
31121;BME280;17770;45.966;13.632;2023-09-07T01:33:53;101018.25;;;27.98;42.99
31121;BME280;17770;45.966;13.632;2023-09-07T01:36:19;101014.75;;;27.97;42.91
31121;BME280;17770;45.966;13.632;2023-09-07T01:38:45;101013.09;;;27.96;43.08
31121;BME280;17770;45.966;13.632;2023-09-07T01:41:11;101013.19;;;27.95;42.76
31121;BME280;17770;45.966;13.632;2023-09-07T01:43:37;101013.19;;;27.95;43.05
31121;BME280;17770;45.966;13.632;2023-09-07T01:46:03;101009.31;;;27.89;42.70
31121;BME280;17770;45.966;13.632;2023-09-07T01:48:29;101010.84;;;27.92;42.87
31121;BME280;17770;45.966;13.632;2023-09-07T01:50:55;101004.81;;;27.90;42.62
31121;BME280;17770;45.966;13.632;2023-09-07T01:53:21;100997.13;;;27.87;42.45
31121;BME280;17770;45.966;13.632;2023-09-07T01:55:48;101000.75;;;27.86;42.74
31121;BME280;17770;45.966;13.632;2023-09-07T01:58:14;100993.91;;;27.83;42.61
31121;BME280;17770;45.966;13.632;2023-09-07T02:00:40;100992.94;;;27.84;42.37
31121;BME280;17770;45.966;13.632;2023-09-07T02:03:06;100991.41;;;27.82;42.50
31121;BME280;17770;45.966;13.632;2023-09-07T02:05:32;100993.22;;;27.81;42.15
31121;BME280;17770;45.966;13.632;2023-09-07T02:07:58;100989.03;;;27.79;42.24
31121;BME280;17770;45.966;13.632;2023-09-07T02:10:24;100989.03;;;27.79;42.24
31121;BME280;17770;45.966;13.632;2023-09-07T02:12:50;100986.66;;;27.76;42.34
31121;BME280;17770;45.966;13.632;2023-09-07T02:15:17;100988.47;;;27.75;42.10
31121;BME280;17770;45.966;13.632;2023-09-07T02:17:43;100987.75;;;27.73;42.22
31121;BME280;17770;45.966;13.632;2023-09-07T02:20:11;100992.41;;;27.71;42.03
31121;BME280;17770;45.966;13.632;2023-09-07T02:22:37;100983.59;;;27.71;42.31
31121;BME280;17770;45.966;13.632;2023-09-07T02:25:03;100982.75;;;27.70;42.30
31121;BME280;17770;45.966;13.632;2023-09-07T02:27:32;100979.53;;;27.67;41.92
31121;BME280;17770;45.966;13.632;2023-09-07T02:29:58;100984.84;;;27.67;42.25
31121;BME280;17770;45.966;13.632;2023-09-07T02:32:24;100983.44;;;27.63;42.15
31121;BME280;17770;45.966;13.632;2023-09-07T02:34:50;100976.47;;;27.62;42.14
31121;BME280;17770;45.966;13.632;2023-09-07T02:37:16;100971.28;;;27.60;42.38
31121;BME280;17770;45.966;13.632;2023-09-07T02:39:42;100968.66;;;27.60;42.27
31121;BME280;17770;45.966;13.632;2023-09-07T02:42:09;100968.13;;;27.57;42.04
31121;BME280;17770;45.966;13.632;2023-09-07T02:44:34;100963.78;;;27.56;42.14
31121;BME280;17770;45.966;13.632;2023-09-07T02:47:02;100970.19;;;27.53;41.98
31121;BME280;17770;45.966;13.632;2023-09-07T02:49:29;100959.59;;;27.53;42.31
31121;BME280;17770;45.966;13.632;2023-09-07T02:51:54;100952.75;;;27.51;42.10
31121;BME280;17770;45.966;13.632;2023-09-07T02:54:20;100953.44;;;27.53;41.76
31121;BME280;17770;45.966;13.632;2023-09-07T02:56:46;100952.59;;;27.52;42.32
31121;BME280;17770;45.966;13.632;2023-09-07T02:59:12;100951.78;;;27.52;41.95
31121;BME280;17770;45.966;13.632;2023-09-07T03:01:39;100952.88;;;27.49;42.25
31121;BME280;17770;45.966;13.632;2023-09-07T03:04:05;100946.88;;;27.47;41.97
31121;BME280;17770;45.966;13.632;2023-09-07T03:06:31;100950.53;;;27.46;41.92
31121;BME280;17770;45.966;13.632;2023-09-07T03:08:57;100945.50;;;27.43;42.04
31121;BME280;17770;45.966;13.632;2023-09-07T03:11:23;100952.59;;;27.43;42.35
31121;BME280;17770;45.966;13.632;2023-09-07T03:13:49;100948.44;;;27.40;41.77
31121;BME280;17770;45.966;13.632;2023-09-07T03:16:15;100954.81;;;27.38;41.94
31121;BME280;17770;45.966;13.632;2023-09-07T03:18:41;100953.84;;;27.39;42.19
31121;BME280;17770;45.966;13.632;2023-09-07T03:21:07;100955.81;;;27.37;41.81
31121;BME280;17770;45.966;13.632;2023-09-07T03:23:33;100954.97;;;27.36;42.00
31121;BME280;17770;45.966;13.632;2023-09-07T03:25:59;100953.16;;;27.37;42.16
31121;BME280;17770;45.966;13.632;2023-09-07T03:28:26;100959.28;;;27.37;42.28
31121;BME280;17770;45.966;13.632;2023-09-07T03:30:52;100956.50;;;27.39;42.04
31121;BME280;17770;45.966;13.632;2023-09-07T03:33:18;100966.28;;;27.38;42.38
31121;BME280;17770;45.966;13.632;2023-09-07T03:35:45;100960.13;;;27.38;42.69
31121;BME280;17770;45.966;13.632;2023-09-07T03:38:11;100959.16;;;27.39;42.47
31121;BME280;17770;45.966;13.632;2023-09-07T03:40:37;100957.63;;;27.36;42.61
31121;BME280;17770;45.966;13.632;2023-09-07T03:43:03;100958.47;;;27.37;42.54
31121;BME280;17770;45.966;13.632;2023-09-07T03:45:30;100944.50;;;27.35;42.56
31121;BME280;17770;45.966;13.632;2023-09-07T03:47:56;100958.72;;;27.34;42.65
31121;BME280;17770;45.966;13.632;2023-09-07T03:50:23;100951.47;;;27.36;42.57
31121;BME280;17770;45.966;13.632;2023-09-07T03:52:49;100948.00;;;27.35;42.96
31121;BME280;17770;45.966;13.632;2023-09-07T03:55:15;100949.66;;;27.36;42.78
31121;BME280;17770;45.966;13.632;2023-09-07T03:57:41;100951.63;;;27.34;42.82
31121;BME280;17770;45.966;13.632;2023-09-07T04:00:07;100941.16;;;27.33;42.74
31121;BME280;17770;45.966;13.632;2023-09-07T04:02:38;100942.97;;;27.32;42.83
31121;BME280;17770;45.966;13.632;2023-09-07T04:05:05;100945.59;;;27.32;42.94
31121;BME280;17770;45.966;13.632;2023-09-07T04:07:31;100947.44;;;27.32;43.13
31121;BME280;17770;45.966;13.632;2023-09-07T04:09:58;100942.28;;;27.30;42.96
31121;BME280;17770;45.966;13.632;2023-09-07T04:12:24;100956.47;;;27.29;43.22
31121;BME280;17770;45.966;13.632;2023-09-07T04:14:50;100944.94;;;27.30;43.19
31121;BME280;17770;45.966;13.632;2023-09-07T04:17:16;100954.41;;;27.33;43.36
31121;BME280;17770;45.966;13.632;2023-09-07T04:19:42;100954.69;;;27.30;42.95
31121;BME280;17770;45.966;13.632;2023-09-07T04:22:10;100946.88;;;27.28;42.98
31121;BME280;17770;45.966;13.632;2023-09-07T04:24:36;100945.16;;;27.27;43.35
31121;BME280;17770;45.966;13.632;2023-09-07T04:27:03;100952.41;;;27.25;42.88
31121;BME280;17770;45.966;13.632;2023-09-07T04:29:31;100948.94;;;27.25;43.21
31121;BME280;17770;45.966;13.632;2023-09-07T04:31:57;100940.84;;;27.26;43.10
31121;BME280;17770;45.966;13.632;2023-09-07T04:34:23;100946.13;;;27.26;43.19
31121;BME280;17770;45.966;13.632;2023-09-07T04:36:49;100946.41;;;27.23;42.94
31121;BME280;17770;45.966;13.632;2023-09-07T04:39:15;100950.72;;;27.24;43.02
31121;BME280;17770;45.966;13.632;2023-09-07T04:41:41;100948.34;;;27.21;43.14
31121;BME280;17770;45.966;13.632;2023-09-07T04:44:07;100957.00;;;27.23;43.24
31121;BME280;17770;45.966;13.632;2023-09-07T04:46:33;100952.00;;;27.20;42.93
31121;BME280;17770;45.966;13.632;2023-09-07T04:48:59;100954.50;;;27.22;43.14
31121;BME280;17770;45.966;13.632;2023-09-07T04:51:25;100956.16;;;27.23;43.15
31121;BME280;17770;45.966;13.632;2023-09-07T04:53:52;100961.47;;;27.23;43.58
31121;BME280;17770;45.966;13.632;2023-09-07T04:56:18;100964.97;;;27.23;43.24
31121;BME280;17770;45.966;13.632;2023-09-07T04:58:45;100964.81;;;27.25;43.33
31121;BME280;17770;45.966;13.632;2023-09-07T05:01:11;100957.84;;;27.24;43.32
31121;BME280;17770;45.966;13.632;2023-09-07T05:03:38;100958.81;;;27.23;43.22
31121;BME280;17770;45.966;13.632;2023-09-07T05:06:06;100963.16;;;27.24;43.26
31121;BME280;17770;45.966;13.632;2023-09-07T05:08:32;100963.41;;;27.21;43.53
31121;BME280;17770;45.966;13.632;2023-09-07T05:10:59;100969.56;;;27.21;43.81
31121;BME280;17770;45.966;13.632;2023-09-07T05:13:26;100961.75;;;27.20;43.67
31121;BME280;17770;45.966;13.632;2023-09-07T05:15:54;100964.25;;;27.21;43.17
31121;BME280;17770;45.966;13.632;2023-09-07T05:18:20;100970.41;;;27.22;43.70
31121;BME280;17770;45.966;13.632;2023-09-07T05:20:46;100974.00;;;27.21;43.31
31121;BME280;17770;45.966;13.632;2023-09-07T05:23:18;100975.84;;;27.20;43.35
31121;BME280;17770;45.966;13.632;2023-09-07T05:25:45;100973.19;;;27.20;43.82
31121;BME280;17770;45.966;13.632;2023-09-07T05:28:12;100986.44;;;27.20;43.37
31121;BME280;17770;45.966;13.632;2023-09-07T05:30:38;100982.09;;;27.19;43.71
31121;BME280;17770;45.966;13.632;2023-09-07T05:33:04;100975.00;;;27.20;43.68
31121;BME280;17770;45.966;13.632;2023-09-07T05:35:30;100979.44;;;27.19;43.64
31121;BME280;17770;45.966;13.632;2023-09-07T05:37:58;100978.63;;;27.19;43.34
31121;BME280;17770;45.966;13.632;2023-09-07T05:40:24;100979.56;;;27.18;43.67
31121;BME280;17770;45.966;13.632;2023-09-07T05:42:50;100993.41;;;27.21;43.64
31121;BME280;17770;45.966;13.632;2023-09-07T05:45:16;100985.59;;;27.20;43.55
31121;BME280;17770;45.966;13.632;2023-09-07T05:47:42;100987.38;;;27.19;43.64
31121;BME280;17770;45.966;13.632;2023-09-07T05:50:08;100993.53;;;27.20;43.44
31121;BME280;17770;45.966;13.632;2023-09-07T05:52:34;100991.88;;;27.19;43.64
31121;BME280;17770;45.966;13.632;2023-09-07T05:55:00;100994.38;;;27.20;43.91
31121;BME280;17770;45.966;13.632;2023-09-07T05:57:26;100984.75;;;27.19;43.51
31121;BME280;17770;45.966;13.632;2023-09-07T05:59:52;100993.81;;;27.17;43.48
31121;BME280;17770;45.966;13.632;2023-09-07T06:02:18;100992.97;;;27.16;44.06
31121;BME280;17770;45.966;13.632;2023-09-07T06:04:44;100997.69;;;27.13;43.46
31121;BME280;17770;45.966;13.632;2023-09-07T06:07:10;100996.16;;;27.10;43.61
31121;BME280;17770;45.966;13.632;2023-09-07T06:09:36;100991.13;;;27.07;43.60
31121;BME280;17770;45.966;13.632;2023-09-07T06:12:02;100989.44;;;27.06;43.75
31121;BME280;17770;45.966;13.632;2023-09-07T06:14:29;100992.50;;;27.02;43.25
31121;BME280;17770;45.966;13.632;2023-09-07T06:16:55;100994.44;;;27.00;43.32
31121;BME280;17770;45.966;13.632;2023-09-07T06:19:21;100989.28;;;26.98;43.18
31121;BME280;17770;45.966;13.632;2023-09-07T06:21:47;100990.13;;;26.99;43.19
31121;BME280;17770;45.966;13.632;2023-09-07T06:24:13;100990.41;;;26.96;43.31
31121;BME280;17770;45.966;13.632;2023-09-07T06:26:41;100994.59;;;26.98;43.39
31121;BME280;17770;45.966;13.632;2023-09-07T06:29:08;100992.91;;;26.97;43.31
31121;BME280;17770;45.966;13.632;2023-09-07T06:31:34;100996.53;;;26.96;43.08
31121;BME280;17770;45.966;13.632;2023-09-07T06:34:01;101001.25;;;26.92;43.38
31121;BME280;17770;45.966;13.632;2023-09-07T06:36:29;101006.28;;;26.96;43.37
31121;BME280;17770;45.966;13.632;2023-09-07T06:38:55;101003.75;;;26.94;43.31
31121;BME280;17770;45.966;13.632;2023-09-07T06:41:21;101015.59;;;26.90;43.58
31121;BME280;17770;45.966;13.632;2023-09-07T06:43:47;101009.41;;;26.80;43.78
31121;BME280;17770;45.966;13.632;2023-09-07T06:46:13;101003.41;;;26.78;43.78
31121;BME280;17770;45.966;13.632;2023-09-07T06:48:39;101004.91;;;26.71;43.60
31121;BME280;17770;45.966;13.632;2023-09-07T06:51:05;101014.81;;;26.69;43.83
31121;BME280;17770;45.966;13.632;2023-09-07T06:53:32;101018.53;;;26.66;44.22
31121;BME280;17770;45.966;13.632;2023-09-07T06:55:59;101013.69;;;26.71;43.68
31121;BME280;17770;45.966;13.632;2023-09-07T06:58:25;101012.03;;;26.70;44.27
31121;BME280;17770;45.966;13.632;2023-09-07T07:00:51;101019.13;;;26.70;44.76
31121;BME280;17770;45.966;13.632;2023-09-07T07:03:17;101020.34;;;26.66;45.67
31121;BME280;17770;45.966;13.632;2023-09-07T07:05:43;101013.03;;;26.58;46.09
31121;BME280;17770;45.966;13.632;2023-09-07T07:08:09;101013.91;;;26.59;45.92
31121;BME280;17770;45.966;13.632;2023-09-07T07:10:35;101017.94;;;26.63;44.96
31121;BME280;17770;45.966;13.632;2023-09-07T07:13:01;101015.75;;;26.68;45.05
31121;BME280;17770;45.966;13.632;2023-09-07T07:15:27;101015.41;;;26.72;45.07
31121;BME280;17770;45.966;13.632;2023-09-07T07:17:53;101024.72;;;26.76;44.98
31121;BME280;17770;45.966;13.632;2023-09-07T07:20:19;101022.94;;;26.77;44.74
31121;BME280;17770;45.966;13.632;2023-09-07T07:22:45;101019.44;;;26.76;44.60
31121;BME280;17770;45.966;13.632;2023-09-07T07:25:14;101028.38;;;26.75;44.44
31121;BME280;17770;45.966;13.632;2023-09-07T07:27:39;101022.63;;;26.70;44.94
31121;BME280;17770;45.966;13.632;2023-09-07T07:30:05;101031.84;;;26.55;45.74
31121;BME280;17770;45.966;13.632;2023-09-07T07:32:31;101029.78;;;26.59;45.89
31121;BME280;17770;45.966;13.632;2023-09-07T07:34:57;101028.28;;;26.45;46.18
31121;BME280;17770;45.966;13.632;2023-09-07T07:37:24;101035.56;;;26.53;46.14
31121;BME280;17770;45.966;13.632;2023-09-07T07:39:50;101034.16;;;26.69;45.73
31121;BME280;17770;45.966;13.632;2023-09-07T07:42:16;101038.78;;;26.56;46.50
31121;BME280;17770;45.966;13.632;2023-09-07T07:44:44;101039.59;;;26.47;45.25
31121;BME280;17770;45.966;13.632;2023-09-07T07:47:11;101037.41;;;26.52;45.08
31121;BME280;17770;45.966;13.632;2023-09-07T07:49:37;101036.94;;;26.47;45.63
31121;BME280;17770;45.966;13.632;2023-09-07T07:52:03;101040.34;;;26.59;45.03
31121;BME280;17770;45.966;13.632;2023-09-07T07:54:29;101039.47;;;26.49;44.74
31121;BME280;17770;45.966;13.632;2023-09-07T07:56:56;101038.94;;;26.55;44.81
31121;BME280;17770;45.966;13.632;2023-09-07T07:59:23;101037.84;;;26.57;44.72
31121;BME280;17770;45.966;13.632;2023-09-07T08:01:48;101035.38;;;26.45;44.30
31121;BME280;17770;45.966;13.632;2023-09-07T08:04:15;101032.09;;;26.52;44.13
31121;BME280;17770;45.966;13.632;2023-09-07T08:06:41;101036.28;;;26.55;44.07
31121;BME280;17770;45.966;13.632;2023-09-07T08:09:07;101042.44;;;26.55;44.27
31121;BME280;17770;45.966;13.632;2023-09-07T08:11:34;101034.63;;;26.54;44.03
31121;BME280;17770;45.966;13.632;2023-09-07T08:14:00;101030.84;;;26.56;43.11
31121;BME280;17770;45.966;13.632;2023-09-07T08:16:27;101031.03;;;26.64;43.48
31121;BME280;17770;45.966;13.632;2023-09-07T08:18:53;101034.59;;;26.74;42.72
31121;BME280;17770;45.966;13.632;2023-09-07T08:21:20;101030.94;;;26.66;41.77
31121;BME280;17770;45.966;13.632;2023-09-07T08:23:46;101033.47;;;26.67;41.74
31121;BME280;17770;45.966;13.632;2023-09-07T08:26:13;101032.41;;;26.79;41.50
31121;BME280;17770;45.966;13.632;2023-09-07T08:28:42;101032.97;;;26.83;41.30
31121;BME280;17770;45.966;13.632;2023-09-07T08:31:12;101029.63;;;26.81;41.58
31121;BME280;17770;45.966;13.632;2023-09-07T08:33:40;101028.81;;;26.80;40.81
31121;BME280;17770;45.966;13.632;2023-09-07T08:36:05;101030.63;;;26.89;40.83
31121;BME280;17770;45.966;13.632;2023-09-07T08:38:32;101020.63;;;26.93;40.73
31121;BME280;17770;45.966;13.632;2023-09-07T08:41:00;101021.91;;;26.99;40.53
31121;BME280;17770;45.966;13.632;2023-09-07T08:43:27;101021.91;;;26.99;39.80
31121;BME280;17770;45.966;13.632;2023-09-07T08:46:04;101018.28;;;27.00;40.21
31121;BME280;17770;45.966;13.632;2023-09-07T08:48:35;101030.44;;;27.02;40.39
31121;BME280;17770;45.966;13.632;2023-09-07T08:51:01;101024.44;;;27.10;39.93
31121;BME280;17770;45.966;13.632;2023-09-07T08:53:28;101025.59;;;27.17;39.96
31121;BME280;17770;45.966;13.632;2023-09-07T08:55:55;101027.69;;;27.13;39.56
31121;BME280;17770;45.966;13.632;2023-09-07T08:58:22;101023.38;;;27.22;39.48
31121;BME280;17770;45.966;13.632;2023-09-07T09:00:48;101025.91;;;27.23;39.67
31121;BME280;17770;45.966;13.632;2023-09-07T09:03:14;101018.78;;;27.24;39.41
31121;BME280;17770;45.966;13.632;2023-09-07T09:05:40;101026.09;;;27.31;39.72
31121;BME280;17770;45.966;13.632;2023-09-07T09:08:06;101025.22;;;27.31;40.41
31121;BME280;17770;45.966;13.632;2023-09-07T09:10:32;101024.28;;;27.41;40.31
31121;BME280;17770;45.966;13.632;2023-09-07T09:12:58;101024.16;;;27.43;40.03
31121;BME280;17770;45.966;13.632;2023-09-07T09:15:27;101022.34;;;27.43;39.36
31121;BME280;17770;45.966;13.632;2023-09-07T09:17:53;101026.53;;;27.46;39.58
31121;BME280;17770;45.966;13.632;2023-09-07T09:20:20;101027.78;;;27.42;39.38
31121;BME280;17770;45.966;13.632;2023-09-07T09:22:46;101025.56;;;27.47;39.56
31121;BME280;17770;45.966;13.632;2023-09-07T09:25:12;101034.91;;;27.51;39.32
31121;BME280;17770;45.966;13.632;2023-09-07T09:27:38;101029.34;;;27.54;39.66
31121;BME280;17770;45.966;13.632;2023-09-07T09:30:04;101029.34;;;27.54;39.53
31121;BME280;17770;45.966;13.632;2023-09-07T09:32:30;101021.13;;;27.66;38.88
31121;BME280;17770;45.966;13.632;2023-09-07T09:34:56;101027.25;;;27.67;39.27
31121;BME280;17770;45.966;13.632;2023-09-07T09:37:22;101020.28;;;27.66;39.20
31121;BME280;17770;45.966;13.632;2023-09-07T09:39:49;101026.16;;;27.69;38.66
31121;BME280;17770;45.966;13.632;2023-09-07T09:42:15;101024.22;;;27.71;38.61
31121;BME280;17770;45.966;13.632;2023-09-07T09:44:42;101014.84;;;27.77;38.46
31121;BME280;17770;45.966;13.632;2023-09-07T09:47:09;101015.41;;;27.80;38.46
31121;BME280;17770;45.966;13.632;2023-09-07T09:49:35;101016.69;;;27.86;38.20
31121;BME280;17770;45.966;13.632;2023-09-07T09:52:02;101016.69;;;27.95;38.63
31121;BME280;17770;45.966;13.632;2023-09-07T09:54:30;101016.44;;;28.08;38.46
31121;BME280;17770;45.966;13.632;2023-09-07T09:56:57;101013.19;;;28.14;38.26
31121;BME280;17770;45.966;13.632;2023-09-07T09:59:23;101014.31;;;28.21;37.90
31121;BME280;17770;45.966;13.632;2023-09-07T10:01:49;101012.16;;;28.44;37.42
31121;BME280;17770;45.966;13.632;2023-09-07T10:04:17;101010.75;;;28.40;37.72
31121;BME280;17770;45.966;13.632;2023-09-07T10:06:50;101007.28;;;28.30;37.68
31121;BME280;17770;45.966;13.632;2023-09-07T10:09:16;101011.38;;;28.24;37.72
31121;BME280;17770;45.966;13.632;2023-09-07T10:11:50;101009.41;;;28.16;37.82
31121;BME280;17770;45.966;13.632;2023-09-07T10:14:16;101009.41;;;28.16;38.20
31121;BME280;17770;45.966;13.632;2023-09-07T10:16:48;101004.81;;;28.18;37.80
31121;BME280;17770;45.966;13.632;2023-09-07T10:19:21;100997.97;;;28.26;37.73
31121;BME280;17770;45.966;13.632;2023-09-07T10:21:48;100998.09;;;28.24;37.67
31121;BME280;17770;45.966;13.632;2023-09-07T10:24:24;101004.13;;;28.26;37.64
31121;BME280;17770;45.966;13.632;2023-09-07T10:26:58;100997.25;;;28.24;37.41
31121;BME280;17770;45.966;13.632;2023-09-07T10:29:24;100998.25;;;28.23;38.19
31121;BME280;17770;45.966;13.632;2023-09-07T10:31:51;100997.38;;;28.32;37.74
31121;BME280;17770;45.966;13.632;2023-09-07T10:34:17;100993.88;;;28.41;36.63
31121;BME280;17770;45.966;13.632;2023-09-07T10:36:43;100986.75;;;28.32;37.16
31121;BME280;17770;45.966;13.632;2023-09-07T10:39:09;100988.47;;;28.33;37.57
31121;BME280;17770;45.966;13.632;2023-09-07T10:41:41;100989.94;;;28.45;37.16
31121;BME280;17770;45.966;13.632;2023-09-07T10:44:08;100987.72;;;28.40;36.91
31121;BME280;17770;45.966;13.632;2023-09-07T10:46:37;100985.50;;;28.36;36.72
31121;BME280;17770;45.966;13.632;2023-09-07T10:49:03;100978.91;;;28.40;37.08
31121;BME280;17770;45.966;13.632;2023-09-07T10:51:28;100983.66;;;28.55;37.41
31121;BME280;17770;45.966;13.632;2023-09-07T10:53:55;100973.56;;;28.68;37.18
31121;BME280;17770;45.966;13.632;2023-09-07T10:56:23;100975.75;;;28.73;36.05
31121;BME280;17770;45.966;13.632;2023-09-07T10:58:49;100975.84;;;28.90;36.19
31121;BME280;17770;45.966;13.632;2023-09-07T11:01:19;100979.41;;;29.08;36.42
31121;BME280;17770;45.966;13.632;2023-09-07T11:03:45;100963.63;;;29.24;36.13
31121;BME280;17770;45.966;13.632;2023-09-07T11:06:18;100962.28;;;29.38;35.16
31121;BME280;17770;45.966;13.632;2023-09-07T11:08:45;100962.84;;;29.42;36.32
31121;BME280;17770;45.966;13.632;2023-09-07T11:11:12;100966.06;;;29.35;36.26
31121;BME280;17770;45.966;13.632;2023-09-07T11:13:38;100959.97;;;29.25;35.84
31121;BME280;17770;45.966;13.632;2023-09-07T11:16:06;100966.59;;;29.39;35.85
31121;BME280;17770;45.966;13.632;2023-09-07T11:18:33;100963.81;;;29.58;35.86
31121;BME280;17770;45.966;13.632;2023-09-07T11:21:01;100952.44;;;29.66;34.73
31121;BME280;17770;45.966;13.632;2023-09-07T11:23:30;100949.63;;;29.67;35.85
31121;BME280;17770;45.966;13.632;2023-09-07T11:26:03;100950.47;;;29.68;35.58
31121;BME280;17770;45.966;13.632;2023-09-07T11:28:29;100940.44;;;29.79;35.37
31121;BME280;17770;45.966;13.632;2023-09-07T11:30:55;100946.88;;;29.94;34.77
31121;BME280;17770;45.966;13.632;2023-09-07T11:33:22;100934.50;;;30.11;34.58
31121;BME280;17770;45.966;13.632;2023-09-07T11:35:47;100940.69;;;30.11;34.55
31121;BME280;17770;45.966;13.632;2023-09-07T11:38:14;100940.69;;;30.11;34.94
31121;BME280;17770;45.966;13.632;2023-09-07T11:40:40;100942.44;;;30.03;35.03
31121;BME280;17770;45.966;13.632;2023-09-07T11:43:13;100938.94;;;30.02;34.14
31121;BME280;17770;45.966;13.632;2023-09-07T11:45:40;100936.31;;;30.28;32.36
31121;BME280;17770;45.966;13.632;2023-09-07T11:48:06;100936.53;;;30.34;33.61
31121;BME280;17770;45.966;13.632;2023-09-07T11:50:35;100935.41;;;30.19;34.25
31121;BME280;17770;45.966;13.632;2023-09-07T11:53:01;100933.81;;;30.09;35.44
31121;BME280;17770;45.966;13.632;2023-09-07T11:55:27;100935.28;;;30.03;36.19
31121;BME280;17770;45.966;13.632;2023-09-07T11:57:53;100937.72;;;29.97;35.60
31121;BME280;17770;45.966;13.632;2023-09-07T12:00:19;100928.34;;;29.67;34.71
31121;BME280;17770;45.966;13.632;2023-09-07T12:02:44;100921.56;;;29.37;34.49
31121;BME280;17770;45.966;13.632;2023-09-07T12:05:10;100917.56;;;29.33;34.90
31121;BME280;17770;45.966;13.632;2023-09-07T12:07:40;100914.13;;;29.41;35.33
31121;BME280;17770;45.966;13.632;2023-09-07T12:10:06;100909.34;;;29.45;35.10
31121;BME280;17770;45.966;13.632;2023-09-07T12:12:39;100919.38;;;29.33;34.77
31121;BME280;17770;45.966;13.632;2023-09-07T12:15:05;100911.31;;;29.42;34.99
31121;BME280;17770;45.966;13.632;2023-09-07T12:17:31;100912.75;;;29.55;35.55
31121;BME280;17770;45.966;13.632;2023-09-07T12:19:57;100916.75;;;29.59;34.54
31121;BME280;17770;45.966;13.632;2023-09-07T12:22:23;100917.88;;;29.66;35.14
31121;BME280;17770;45.966;13.632;2023-09-07T12:24:49;100913.78;;;29.71;35.50
31121;BME280;17770;45.966;13.632;2023-09-07T12:27:15;100901.53;;;29.78;35.79
31121;BME280;17770;45.966;13.632;2023-09-07T12:29:41;100903.03;;;29.81;36.10
31121;BME280;17770;45.966;13.632;2023-09-07T12:32:07;100906.59;;;29.89;35.84
31121;BME280;17770;45.966;13.632;2023-09-07T12:34:32;100893.75;;;29.85;36.17
31121;BME280;17770;45.966;13.632;2023-09-07T12:36:58;100896.25;;;29.86;35.72